createdAt,value
2023-02-13T00:00:12.626Z,1033.89
2023-02-13T00:01:12.852Z,1033.90
2023-02-13T00:02:13.827Z,1033.91
2023-02-13T00:03:12.465Z,1033.92
2023-02-13T00:04:13.729Z,1033.94
2023-02-13T00:05:12.588Z,1033.96
2023-02-13T00:06:12.550Z,1033.97
2023-02-13T00:07:12.431Z,1033.93
2023-02-13T00:08:12.674Z,1033.93
2023-02-13T00:09:12.085Z,1033.92
2023-02-13T00:10:11.705Z,1033.84
2023-02-13T00:11:13.664Z,1033.91
2023-02-13T00:12:11.666Z,1033.89
2023-02-13T00:13:12.582Z,1033.87
2023-02-13T00:14:12.583Z,1033.89
2023-02-13T00:15:12.318Z,1033.89
2023-02-13T00:16:12.367Z,1033.86
2023-02-13T00:17:12.295Z,1033.86
2023-02-13T00:18:11.605Z,1033.85
2023-02-13T00:19:11.617Z,1033.84
2023-02-13T00:20:11.599Z,1033.81
2023-02-13T00:21:12.287Z,1033.83
2023-02-13T00:22:11.581Z,1033.82
2023-02-13T00:23:12.225Z,1033.82
2023-02-13T00:24:12.222Z,1033.79
2023-02-13T00:25:12.530Z,1033.79
2023-02-13T00:26:12.516Z,1033.75
2023-02-13T00:27:12.436Z,1033.79
2023-02-13T00:28:12.508Z,1033.73
2023-02-13T00:29:12.168Z,1033.70
2023-02-13T00:30:12.207Z,1033.72
2023-02-13T00:31:12.883Z,1033.73
2023-02-13T00:32:15.591Z,1033.71
2023-02-13T00:33:12.485Z,1033.70
2023-02-13T00:34:12.192Z,1033.71
2023-02-13T00:35:12.000Z,1033.70
2023-02-13T00:36:12.734Z,1033.68
2023-02-13T00:37:12.085Z,1033.71
2023-02-13T00:38:12.524Z,1033.68
2023-02-13T00:39:11.490Z,1033.68
2023-02-13T00:40:12.053Z,1033.70
2023-02-13T00:41:12.614Z,1033.68
2023-02-13T00:42:14.189Z,1033.70
2023-02-13T00:43:12.012Z,1033.70
2023-02-13T00:44:11.998Z,1033.73
2023-02-13T00:45:11.986Z,1033.74
2023-02-13T00:46:11.329Z,1033.73
2023-02-13T00:47:11.983Z,1033.74
2023-02-13T00:48:11.953Z,1033.73
2023-02-13T00:49:12.261Z,1033.68
2023-02-13T00:50:11.254Z,1033.69
2023-02-13T00:51:11.925Z,1033.73
2023-02-13T00:52:11.988Z,1033.74
2023-02-13T00:53:11.233Z,1033.76
2023-02-13T00:54:11.895Z,1033.77
2023-02-13T00:55:11.875Z,1033.76
2023-02-13T00:56:11.880Z,1033.75
2023-02-13T00:57:11.882Z,1033.75
2023-02-13T00:58:11.864Z,1033.78
2023-02-13T00:59:11.848Z,1033.75
2023-02-13T01:00:11.829Z,1033.77
2023-02-13T01:01:11.880Z,1033.79
2023-02-13T01:02:11.160Z,1033.81
2023-02-13T01:03:11.809Z,1033.77
2023-02-13T01:04:11.097Z,1033.78
2023-02-13T01:05:11.816Z,1033.77
2023-02-13T01:06:11.090Z,1033.75
2023-02-13T01:07:11.771Z,1033.79
2023-02-13T01:08:11.740Z,1033.78
2023-02-13T01:09:11.729Z,1033.81
2023-02-13T01:10:11.089Z,1033.80
2023-02-13T01:11:11.031Z,1033.80
2023-02-13T01:12:11.044Z,1033.83
2023-02-13T01:13:11.014Z,1033.84
2023-02-13T01:14:11.678Z,1033.82
2023-02-13T01:15:10.982Z,1033.83
2023-02-13T01:16:12.025Z,1033.81
2023-02-13T01:17:10.997Z,1033.83
2023-02-13T01:18:11.637Z,1033.80
2023-02-13T01:19:11.623Z,1033.80
2023-02-13T01:20:11.897Z,1033.78
2023-02-13T01:21:11.605Z,1033.77
2023-02-13T01:22:11.690Z,1033.74
2023-02-13T01:23:10.894Z,1033.79
2023-02-13T01:24:10.895Z,1033.79
2023-02-13T01:25:11.565Z,1033.77
2023-02-13T01:26:11.555Z,1033.76
2023-02-13T01:27:11.575Z,1033.74
2023-02-13T01:28:10.891Z,1033.74
2023-02-13T01:29:10.838Z,1033.72
2023-02-13T01:30:11.512Z,1033.72
2023-02-13T01:31:11.583Z,1033.73
2023-02-13T01:32:11.569Z,1033.72
2023-02-13T01:33:10.811Z,1033.69
2023-02-13T01:34:10.789Z,1033.72
2023-02-13T01:35:10.791Z,1033.67
2023-02-13T01:36:10.773Z,1033.66
2023-02-13T01:37:11.458Z,1033.66
2023-02-13T01:38:11.426Z,1033.75
2023-02-13T01:39:10.737Z,1033.70
2023-02-13T01:40:10.716Z,1033.68
2023-02-13T01:41:11.435Z,1033.65
2023-02-13T01:42:11.413Z,1033.66
2023-02-13T01:43:11.366Z,1033.64
2023-02-13T01:44:10.685Z,1033.65
2023-02-13T01:45:10.666Z,1033.67
2023-02-13T01:46:10.696Z,1033.64
2023-02-13T01:47:11.343Z,1033.59
2023-02-13T01:48:11.313Z,1033.57
2023-02-13T01:49:11.308Z,1033.57
2023-02-13T01:50:10.614Z,1033.56
2023-02-13T01:51:10.618Z,1033.56
2023-02-13T01:52:10.575Z,1033.55
2023-02-13T01:53:10.591Z,1033.55
2023-02-13T01:54:11.255Z,1033.52
2023-02-13T01:55:10.568Z,1033.52
2023-02-13T01:56:11.226Z,1033.46
2023-02-13T01:57:11.232Z,1033.45
2023-02-13T01:58:10.549Z,1033.50
2023-02-13T01:59:10.532Z,1033.45
2023-02-13T02:00:11.198Z,1033.52
2023-02-13T02:01:10.507Z,1033.50
2023-02-13T02:02:11.265Z,1033.49
2023-02-13T02:03:10.514Z,1033.51
2023-02-13T02:04:11.149Z,1033.49
2023-02-13T02:05:11.138Z,1033.50
2023-02-13T02:06:11.127Z,1033.42
2023-02-13T02:07:11.144Z,1033.45
2023-02-13T02:08:10.431Z,1033.45
2023-02-13T02:09:10.425Z,1033.44
2023-02-13T02:10:11.080Z,1033.48
2023-02-13T02:11:11.068Z,1033.51
2023-02-13T02:12:11.060Z,1033.52
2023-02-13T02:13:11.071Z,1033.52
2023-02-13T02:14:10.352Z,1033.53
2023-02-13T02:15:10.358Z,1033.51
2023-02-13T02:16:10.388Z,1033.53
2023-02-13T02:17:11.011Z,1033.49
2023-02-13T02:18:11.023Z,1033.52
2023-02-13T02:19:10.304Z,1033.48
2023-02-13T02:20:10.285Z,1033.52
2023-02-13T02:21:10.309Z,1033.47
2023-02-13T02:22:10.277Z,1033.49
2023-02-13T02:23:10.296Z,1033.51
2023-02-13T02:24:10.275Z,1033.50
2023-02-13T02:25:10.924Z,1033.46
2023-02-13T02:26:10.231Z,1033.49
2023-02-13T02:27:10.904Z,1033.47
2023-02-13T02:28:10.259Z,1033.49
2023-02-13T02:29:10.910Z,1033.50
2023-02-13T02:30:10.220Z,1033.47
2023-02-13T02:31:11.001Z,1033.47
2023-02-13T02:32:10.851Z,1033.46
2023-02-13T02:33:10.173Z,1033.44
2023-02-13T02:34:10.841Z,1033.40
2023-02-13T02:35:10.820Z,1033.42
2023-02-13T02:36:10.812Z,1033.43
2023-02-13T02:37:10.122Z,1033.40
2023-02-13T02:38:10.100Z,1033.43
2023-02-13T02:39:10.100Z,1033.39
2023-02-13T02:40:10.763Z,1033.39
2023-02-13T02:41:10.054Z,1033.43
2023-02-13T02:42:10.749Z,1033.37
2023-02-13T02:43:10.043Z,1033.32
2023-02-13T02:44:10.069Z,1033.35
2023-02-13T02:45:10.709Z,1033.31
2023-02-13T02:46:10.704Z,1033.36
2023-02-13T02:47:10.694Z,1033.33
2023-02-13T02:48:11.430Z,1033.29
2023-02-13T02:49:10.684Z,1033.27
2023-02-13T02:50:09.989Z,1033.30
2023-02-13T02:51:09.961Z,1033.29
2023-02-13T02:52:10.636Z,1033.30
2023-02-13T02:53:11.378Z,1033.30
2023-02-13T02:54:09.941Z,1033.31
2023-02-13T02:55:10.867Z,1033.31
2023-02-13T02:56:09.909Z,1033.30
2023-02-13T02:57:10.580Z,1033.27
2023-02-13T02:58:10.569Z,1033.26
2023-02-13T02:59:10.582Z,1033.24
2023-02-13T03:00:09.859Z,1033.27
2023-02-13T03:01:09.902Z,1033.26
2023-02-13T03:02:10.520Z,1033.24
2023-02-13T03:03:10.770Z,1033.24
2023-02-13T03:04:10.564Z,1033.24
2023-02-13T03:05:10.755Z,1033.23
2023-02-13T03:06:10.480Z,1033.27
2023-02-13T03:07:09.791Z,1033.25
2023-02-13T03:08:10.461Z,1033.23
2023-02-13T03:09:10.469Z,1033.17
2023-02-13T03:10:10.443Z,1033.23
2023-02-13T03:11:10.426Z,1033.20
2023-02-13T03:12:10.413Z,1033.25
2023-02-13T03:13:09.710Z,1033.23
2023-02-13T03:14:09.736Z,1033.28
2023-02-13T03:15:09.741Z,1033.25
2023-02-13T03:16:09.738Z,1033.27
2023-02-13T03:17:10.379Z,1033.23
2023-02-13T03:18:10.353Z,1033.24
2023-02-13T03:19:10.364Z,1033.27
2023-02-13T03:20:09.652Z,1033.27
2023-02-13T03:21:09.672Z,1033.27
2023-02-13T03:22:10.316Z,1033.29
2023-02-13T03:23:10.303Z,1033.32
2023-02-13T03:24:10.314Z,1033.32
2023-02-13T03:25:10.273Z,1033.33
2023-02-13T03:26:10.265Z,1033.36
2023-02-13T03:27:09.625Z,1033.39
2023-02-13T03:28:10.300Z,1033.39
2023-02-13T03:29:09.583Z,1033.37
2023-02-13T03:30:10.237Z,1033.35
2023-02-13T03:31:09.663Z,1033.32
2023-02-13T03:32:10.443Z,1033.34
2023-02-13T03:33:10.215Z,1033.34
2023-02-13T03:34:10.259Z,1033.35
2023-02-13T03:35:10.448Z,1033.34
2023-02-13T03:36:10.166Z,1033.31
2023-02-13T03:37:09.478Z,1033.31
2023-02-13T03:38:10.180Z,1033.32
2023-02-13T03:39:10.168Z,1033.32
2023-02-13T03:40:10.383Z,1033.29
2023-02-13T03:41:10.127Z,1033.34
2023-02-13T03:42:10.109Z,1033.29
2023-02-13T03:43:10.357Z,1033.31
2023-02-13T03:44:10.356Z,1033.31
2023-02-13T03:45:11.325Z,1033.29
2023-02-13T03:46:10.112Z,1033.30
2023-02-13T03:47:09.370Z,1033.29
2023-02-13T03:48:10.319Z,1033.34
2023-02-13T03:49:10.031Z,1033.26
2023-02-13T03:50:09.356Z,1033.33
2023-02-13T03:51:10.024Z,1033.30
2023-02-13T03:52:09.311Z,1033.31
2023-02-13T03:53:09.290Z,1033.33
2023-02-13T03:54:09.288Z,1033.28
2023-02-13T03:55:09.309Z,1033.29
2023-02-13T03:56:09.299Z,1033.29
2023-02-13T03:57:09.292Z,1033.27
2023-02-13T03:58:09.932Z,1033.28
2023-02-13T03:59:09.928Z,1033.26
2023-02-13T04:00:09.338Z,1033.27
2023-02-13T04:01:09.966Z,1033.22
2023-02-13T04:02:09.948Z,1033.22
2023-02-13T04:03:10.130Z,1033.24
2023-02-13T04:04:09.882Z,1033.24
2023-02-13T04:05:10.139Z,1033.27
2023-02-13T04:06:09.851Z,1033.27
2023-02-13T04:07:09.867Z,1033.32
2023-02-13T04:08:10.061Z,1033.33
2023-02-13T04:09:10.065Z,1033.32
2023-02-13T04:10:09.829Z,1033.31
2023-02-13T04:11:09.793Z,1033.30
2023-02-13T04:12:09.099Z,1033.33
2023-02-13T04:13:09.786Z,1033.32
2023-02-13T04:14:09.767Z,1033.27
2023-02-13T04:15:09.833Z,1033.30
2023-02-13T04:16:09.926Z,1033.34
2023-02-13T04:17:10.053Z,1033.31
2023-02-13T04:18:11.013Z,1033.36
2023-02-13T04:19:09.709Z,1033.31
2023-02-13T04:20:09.975Z,1033.33
2023-02-13T04:21:09.701Z,1033.37
2023-02-13T04:22:09.675Z,1033.33
2023-02-13T04:23:09.673Z,1033.35
2023-02-13T04:24:09.665Z,1033.34
2023-02-13T04:25:10.933Z,1033.37
2023-02-13T04:26:09.899Z,1033.39
2023-02-13T04:27:09.854Z,1033.41
2023-02-13T04:28:09.620Z,1033.38
2023-02-13T04:29:09.604Z,1033.38
2023-02-13T04:30:09.879Z,1033.40
2023-02-13T04:31:09.685Z,1033.39
2023-02-13T04:32:09.831Z,1033.37
2023-02-13T04:33:09.837Z,1033.39
2023-02-13T04:34:09.547Z,1033.35
2023-02-13T04:35:09.836Z,1033.35
2023-02-13T04:36:09.529Z,1033.37
2023-02-13T04:37:09.792Z,1033.32
2023-02-13T04:38:09.501Z,1033.38
2023-02-13T04:39:09.753Z,1033.36
2023-02-13T04:40:09.750Z,1033.35
2023-02-13T04:41:09.479Z,1033.35
2023-02-13T04:42:09.460Z,1033.44
2023-02-13T04:43:09.703Z,1033.40
2023-02-13T04:44:09.701Z,1033.38
2023-02-13T04:45:10.219Z,1033.36
2023-02-13T04:46:09.451Z,1033.38
2023-02-13T04:47:08.721Z,1033.35
2023-02-13T04:48:09.401Z,1033.34
2023-02-13T04:49:08.741Z,1033.34
2023-02-13T04:50:08.728Z,1033.31
2023-02-13T04:51:08.704Z,1033.29
2023-02-13T04:52:09.354Z,1033.29
2023-02-13T04:53:08.675Z,1033.24
2023-02-13T04:54:09.761Z,1033.26
2023-02-13T04:55:10.025Z,1033.23
2023-02-13T04:56:09.622Z,1033.25
2023-02-13T04:57:08.723Z,1033.22
2023-02-13T04:58:10.704Z,1033.24
2023-02-13T04:59:08.594Z,1033.23
2023-02-13T05:00:10.496Z,1033.20
2023-02-13T05:01:09.583Z,1033.19
2023-02-13T05:02:09.255Z,1033.21
2023-02-13T05:03:09.260Z,1033.20
2023-02-13T05:04:09.592Z,1033.19
2023-02-13T05:05:10.495Z,1033.21
2023-02-13T05:06:09.206Z,1033.19
2023-02-13T05:07:09.203Z,1033.18
2023-02-13T05:08:09.194Z,1033.21
2023-02-13T05:09:09.176Z,1033.23
2023-02-13T05:10:10.428Z,1033.21
2023-02-13T05:11:08.483Z,1033.19
2023-02-13T05:12:09.147Z,1033.22
2023-02-13T05:13:09.128Z,1033.24
2023-02-13T05:14:08.447Z,1033.25
2023-02-13T05:15:10.386Z,1033.19
2023-02-13T05:16:08.435Z,1033.22
2023-02-13T05:17:09.093Z,1033.22
2023-02-13T05:18:08.977Z,1033.24
2023-02-13T05:19:09.320Z,1033.19
2023-02-13T05:20:09.072Z,1033.22
2023-02-13T05:21:09.062Z,1033.19
2023-02-13T05:22:09.039Z,1033.21
2023-02-13T05:23:09.033Z,1033.23
2023-02-13T05:24:09.041Z,1033.18
2023-02-13T05:25:08.999Z,1033.21
2023-02-13T05:26:08.321Z,1033.21
2023-02-13T05:27:08.402Z,1033.24
2023-02-13T05:28:09.014Z,1033.21
2023-02-13T05:29:08.961Z,1033.18
2023-02-13T05:30:08.967Z,1033.21
2023-02-13T05:31:09.126Z,1033.21
2023-02-13T05:32:08.333Z,1033.24
2023-02-13T05:33:08.936Z,1033.23
2023-02-13T05:34:08.229Z,1033.22
2023-02-13T05:35:10.145Z,1033.24
2023-02-13T05:36:09.169Z,1033.23
2023-02-13T05:37:08.875Z,1033.24
2023-02-13T05:38:09.133Z,1033.25
2023-02-13T05:39:08.173Z,1033.25
2023-02-13T05:40:08.166Z,1033.23
2023-02-13T05:41:08.854Z,1033.18
2023-02-13T05:42:08.827Z,1033.19
2023-02-13T05:43:08.117Z,1033.23
2023-02-13T05:44:08.217Z,1033.20
2023-02-13T05:45:08.106Z,1033.22
2023-02-13T05:46:08.863Z,1033.20
2023-02-13T05:47:08.087Z,1033.21
2023-02-13T05:48:08.758Z,1033.19
2023-02-13T05:49:08.070Z,1033.23
2023-02-13T05:50:08.062Z,1033.19
2023-02-13T05:51:08.758Z,1033.23
2023-02-13T05:52:08.732Z,1033.23
2023-02-13T05:53:08.712Z,1033.25
2023-02-13T05:54:08.702Z,1033.24
2023-02-13T05:55:08.947Z,1033.22
2023-02-13T05:56:08.066Z,1033.22
2023-02-13T05:57:07.976Z,1033.25
2023-02-13T05:58:08.648Z,1033.28
2023-02-13T05:59:07.963Z,1033.27
2023-02-13T06:00:07.946Z,1033.28
2023-02-13T06:01:07.947Z,1033.27
2023-02-13T06:02:07.917Z,1033.28
2023-02-13T06:03:07.922Z,1033.27
2023-02-13T06:04:07.958Z,1033.30
2023-02-13T06:05:08.577Z,1033.31
2023-02-13T06:06:08.605Z,1033.32
2023-02-13T06:07:07.900Z,1033.28
2023-02-13T06:08:07.861Z,1033.27
2023-02-13T06:09:07.928Z,1033.31
2023-02-13T06:10:07.864Z,1033.28
2023-02-13T06:11:08.544Z,1033.33
2023-02-13T06:12:08.590Z,1033.33
2023-02-13T06:13:08.496Z,1033.28
2023-02-13T06:14:08.483Z,1033.34
2023-02-13T06:15:08.467Z,1033.34
2023-02-13T06:16:08.497Z,1033.30
2023-02-13T06:17:08.466Z,1033.32
2023-02-13T06:18:08.437Z,1033.30
2023-02-13T06:19:08.440Z,1033.29
2023-02-13T06:20:08.420Z,1033.29
2023-02-13T06:21:07.737Z,1033.29
2023-02-13T06:22:07.735Z,1033.31
2023-02-13T06:23:08.388Z,1033.29
2023-02-13T06:24:07.698Z,1033.31
2023-02-13T06:25:08.385Z,1033.31
2023-02-13T06:26:08.379Z,1033.34
2023-02-13T06:27:07.672Z,1033.33
2023-02-13T06:28:07.756Z,1033.31
2023-02-13T06:29:07.666Z,1033.33
2023-02-13T06:30:08.314Z,1033.33
2023-02-13T06:31:08.456Z,1033.37
2023-02-13T06:32:08.314Z,1033.39
2023-02-13T06:33:07.600Z,1033.39
2023-02-13T06:34:08.290Z,1033.36
2023-02-13T06:35:09.524Z,1033.41
2023-02-13T06:36:07.551Z,1033.41
2023-02-13T06:37:08.262Z,1033.43
2023-02-13T06:38:08.245Z,1033.42
2023-02-13T06:39:08.216Z,1033.43
2023-02-13T06:40:07.535Z,1033.41
2023-02-13T06:41:07.523Z,1033.40
2023-02-13T06:42:08.203Z,1033.44
2023-02-13T06:43:07.487Z,1033.42
2023-02-13T06:44:07.473Z,1033.42
2023-02-13T06:45:07.474Z,1033.48
2023-02-13T06:46:07.450Z,1033.49
2023-02-13T06:47:07.465Z,1033.48
2023-02-13T06:48:07.436Z,1033.50
2023-02-13T06:49:08.113Z,1033.50
2023-02-13T06:50:07.404Z,1033.54
2023-02-13T06:51:07.419Z,1033.51
2023-02-13T06:52:08.118Z,1033.50
2023-02-13T06:53:08.076Z,1033.56
2023-02-13T06:54:07.377Z,1033.52
2023-02-13T06:55:09.314Z,1033.55
2023-02-13T06:56:08.073Z,1033.53
2023-02-13T06:57:08.062Z,1033.53
2023-02-13T06:58:07.332Z,1033.55
2023-02-13T06:59:07.319Z,1033.58
2023-02-13T07:00:08.009Z,1033.57
2023-02-13T07:01:07.353Z,1033.56
2023-02-13T07:02:07.318Z,1033.58
2023-02-13T07:03:07.344Z,1033.57
2023-02-13T07:04:07.269Z,1033.58
2023-02-13T07:05:07.249Z,1033.51
2023-02-13T07:06:07.929Z,1033.58
2023-02-13T07:07:07.927Z,1033.57
2023-02-13T07:08:07.229Z,1033.61
2023-02-13T07:09:07.232Z,1033.60
2023-02-13T07:10:07.890Z,1033.62
2023-02-13T07:11:07.914Z,1033.61
2023-02-13T07:12:07.869Z,1033.66
2023-02-13T07:13:07.897Z,1033.62
2023-02-13T07:14:07.167Z,1033.64
2023-02-13T07:15:08.135Z,1033.61
2023-02-13T07:16:07.876Z,1033.64
2023-02-13T07:17:07.823Z,1033.63
2023-02-13T07:18:07.152Z,1033.60
2023-02-13T07:19:07.797Z,1033.66
2023-02-13T07:20:07.110Z,1033.69
2023-02-13T07:21:07.084Z,1033.67
2023-02-13T07:22:07.075Z,1033.69
2023-02-13T07:23:07.816Z,1033.70
2023-02-13T07:24:08.140Z,1033.74
2023-02-13T07:25:07.048Z,1033.74
2023-02-13T07:26:07.086Z,1033.79
2023-02-13T07:27:07.019Z,1033.77
2023-02-13T07:28:07.788Z,1033.77
2023-02-13T07:29:12.298Z,1033.80
2023-02-13T07:30:06.998Z,1033.76
2023-02-13T07:31:07.795Z,1033.81
2023-02-13T07:32:07.082Z,1033.81
2023-02-13T07:33:07.769Z,1033.83
2023-02-13T07:34:06.942Z,1033.78
2023-02-13T07:35:06.964Z,1033.82
2023-02-13T07:36:07.614Z,1033.77
2023-02-13T07:37:06.916Z,1033.80
2023-02-13T07:38:07.615Z,1033.80
2023-02-13T07:39:06.973Z,1033.83
2023-02-13T07:40:07.578Z,1033.82
2023-02-13T07:41:06.909Z,1033.85
2023-02-13T07:42:06.868Z,1033.86
2023-02-13T07:43:06.880Z,1033.84
2023-02-13T07:44:07.535Z,1033.88
2023-02-13T07:45:06.851Z,1033.85
2023-02-13T07:46:07.523Z,1033.88
2023-02-13T07:47:07.531Z,1033.90
2023-02-13T07:48:07.517Z,1033.88
2023-02-13T07:49:06.801Z,1033.92
2023-02-13T07:50:06.788Z,1033.89
2023-02-13T07:51:06.792Z,1033.89
2023-02-13T07:52:06.778Z,1033.91
2023-02-13T07:53:07.465Z,1033.89
2023-02-13T07:54:06.783Z,1033.88
2023-02-13T07:55:06.792Z,1033.89
2023-02-13T07:56:06.714Z,1033.88
2023-02-13T07:57:07.403Z,1033.91
2023-02-13T07:58:07.413Z,1033.90
2023-02-13T07:59:08.054Z,1033.89
2023-02-13T08:00:06.710Z,1033.89
2023-02-13T08:01:06.689Z,1033.92
2023-02-13T08:02:06.713Z,1033.88
2023-02-13T08:03:06.692Z,1033.89
2023-02-13T08:04:07.414Z,1033.89
2023-02-13T08:05:06.643Z,1033.96
2023-02-13T08:06:06.606Z,1033.92
2023-02-13T08:07:06.651Z,1033.89
2023-02-13T08:08:06.609Z,1033.89
2023-02-13T08:09:06.661Z,1033.90
2023-02-13T08:10:06.588Z,1033.90
2023-02-13T08:11:07.264Z,1033.91
2023-02-13T08:12:07.240Z,1033.92
2023-02-13T08:13:06.555Z,1033.89
2023-02-13T08:14:07.348Z,1033.85
2023-02-13T08:15:06.524Z,1033.86
2023-02-13T08:16:07.238Z,1033.83
2023-02-13T08:17:07.189Z,1033.83
2023-02-13T08:18:06.484Z,1033.88
2023-02-13T08:19:07.192Z,1033.91
2023-02-13T08:20:07.156Z,1033.86
2023-02-13T08:21:06.463Z,1033.84
2023-02-13T08:22:06.459Z,1033.83
2023-02-13T08:23:07.156Z,1033.86
2023-02-13T08:24:07.125Z,1033.86
2023-02-13T08:25:07.106Z,1033.86
2023-02-13T08:26:06.401Z,1033.84
2023-02-13T08:27:06.394Z,1033.87
2023-02-13T08:28:07.161Z,1033.91
2023-02-13T08:29:07.074Z,1033.88
2023-02-13T08:30:06.383Z,1033.86
2023-02-13T08:31:06.378Z,1033.87
2023-02-13T08:32:07.146Z,1033.83
2023-02-13T08:33:10.033Z,1033.85
2023-02-13T08:34:16.325Z,1033.80
2023-02-13T08:35:07.137Z,1033.81
2023-02-13T08:36:06.346Z,1033.87
2023-02-13T08:37:06.979Z,1033.82
2023-02-13T08:38:06.960Z,1033.84
2023-02-13T08:39:06.286Z,1033.87
2023-02-13T08:40:06.931Z,1033.89
2023-02-13T08:41:06.310Z,1033.85
2023-02-13T08:42:06.250Z,1033.87
2023-02-13T08:43:06.906Z,1033.89
2023-02-13T08:44:06.920Z,1033.88
2023-02-13T08:45:06.898Z,1033.90
2023-02-13T08:46:07.011Z,1033.95
2023-02-13T08:47:06.169Z,1033.89
2023-02-13T08:48:07.099Z,1033.88
2023-02-13T08:49:06.830Z,1033.91
2023-02-13T08:50:07.101Z,1033.94
2023-02-13T08:51:08.068Z,1034.01
2023-02-13T08:52:06.805Z,1034.00
2023-02-13T08:53:06.105Z,1034.04
2023-02-13T08:54:07.055Z,1034.02
2023-02-13T08:55:08.034Z,1034.04
2023-02-13T08:56:06.787Z,1034.02
2023-02-13T08:57:06.757Z,1034.05
2023-02-13T08:58:07.021Z,1033.95
2023-02-13T08:59:06.730Z,1034.02
2023-02-13T09:00:06.790Z,1033.97
2023-02-13T09:01:06.817Z,1034.00
2023-02-13T09:02:06.959Z,1033.99
2023-02-13T09:03:09.166Z,1033.98
2023-02-13T09:04:06.932Z,1034.00
2023-02-13T09:05:06.724Z,1034.04
2023-02-13T09:06:06.666Z,1033.99
2023-02-13T09:07:06.916Z,1034.04
2023-02-13T09:08:06.878Z,1034.04
2023-02-13T09:09:06.872Z,1034.03
2023-02-13T09:10:06.866Z,1034.02
2023-02-13T09:11:06.610Z,1034.01
2023-02-13T09:12:06.590Z,1034.03
2023-02-13T09:13:06.586Z,1034.05
2023-02-13T09:14:06.563Z,1034.06
2023-02-13T09:15:06.626Z,1034.01
2023-02-13T09:16:05.873Z,1034.02
2023-02-13T09:17:06.860Z,1033.99
2023-02-13T09:18:07.796Z,1034.00
2023-02-13T09:19:06.757Z,1034.00
2023-02-13T09:20:06.757Z,1033.99
2023-02-13T09:21:06.751Z,1034.02
2023-02-13T09:22:06.494Z,1033.99
2023-02-13T09:23:06.474Z,1034.01
2023-02-13T09:24:06.462Z,1034.03
2023-02-13T09:25:07.732Z,1034.02
2023-02-13T09:26:06.444Z,1033.99
2023-02-13T09:27:06.663Z,1034.01
2023-02-13T09:28:06.753Z,1034.01
2023-02-13T09:29:06.408Z,1033.98
2023-02-13T09:30:06.436Z,1034.00
2023-02-13T09:31:06.765Z,1033.99
2023-02-13T09:32:06.665Z,1033.96
2023-02-13T09:33:06.615Z,1033.97
2023-02-13T09:34:06.358Z,1034.02
2023-02-13T09:35:07.662Z,1033.96
2023-02-13T09:36:06.343Z,1034.03
2023-02-13T09:37:06.362Z,1034.01
2023-02-13T09:38:06.596Z,1034.01
2023-02-13T09:39:06.558Z,1034.03
2023-02-13T09:40:07.571Z,1034.00
2023-02-13T09:41:05.596Z,1034.04
2023-02-13T09:42:06.285Z,1034.02
2023-02-13T09:43:07.533Z,1034.03
2023-02-13T09:44:06.263Z,1034.05
2023-02-13T09:45:07.525Z,1034.00
2023-02-13T09:46:05.669Z,1034.08
2023-02-13T09:47:05.598Z,1034.03
2023-02-13T09:48:06.463Z,1034.04
2023-02-13T09:49:06.465Z,1034.06
2023-02-13T09:50:06.485Z,1034.05
2023-02-13T09:51:06.180Z,1034.05
2023-02-13T09:52:06.188Z,1034.04
2023-02-13T09:53:06.399Z,1034.07
2023-02-13T09:54:06.142Z,1034.06
2023-02-13T09:55:06.479Z,1034.09
2023-02-13T09:56:06.123Z,1034.04
2023-02-13T09:57:06.400Z,1034.09
2023-02-13T09:58:06.104Z,1034.13
2023-02-13T09:59:06.090Z,1034.09
2023-02-13T10:00:06.100Z,1034.12
2023-02-13T10:01:06.374Z,1034.15
2023-02-13T10:02:06.062Z,1034.11
2023-02-13T10:03:06.054Z,1034.13
2023-02-13T10:04:06.038Z,1034.10
2023-02-13T10:05:05.427Z,1034.14
2023-02-13T10:06:06.288Z,1034.18
2023-02-13T10:07:06.001Z,1034.19
2023-02-13T10:08:06.293Z,1034.17
2023-02-13T10:09:05.981Z,1034.18
2023-02-13T10:10:06.087Z,1034.18
2023-02-13T10:11:06.222Z,1034.18
2023-02-13T10:12:05.955Z,1034.15
2023-02-13T10:13:05.253Z,1034.13
2023-02-13T10:14:06.188Z,1034.14
2023-02-13T10:15:06.205Z,1034.15
2023-02-13T10:16:06.220Z,1034.11
2023-02-13T10:17:06.139Z,1034.19
2023-02-13T10:18:06.124Z,1034.17
2023-02-13T10:19:06.130Z,1034.19
2023-02-13T10:20:06.138Z,1034.20
2023-02-13T10:21:05.846Z,1034.20
2023-02-13T10:22:06.114Z,1034.22
2023-02-13T10:23:05.157Z,1034.25
2023-02-13T10:24:05.152Z,1034.22
2023-02-13T10:25:05.824Z,1034.24
2023-02-13T10:26:05.126Z,1034.24
2023-02-13T10:27:05.786Z,1034.25
2023-02-13T10:28:05.144Z,1034.26
2023-02-13T10:29:05.761Z,1034.23
2023-02-13T10:30:06.038Z,1034.23
2023-02-13T10:31:05.788Z,1034.22
2023-02-13T10:32:05.821Z,1034.18
2023-02-13T10:33:05.720Z,1034.25
2023-02-13T10:34:05.709Z,1034.20
2023-02-13T10:35:05.717Z,1034.22
2023-02-13T10:36:05.689Z,1034.19
2023-02-13T10:37:04.985Z,1034.19
2023-02-13T10:38:04.989Z,1034.20
2023-02-13T10:39:04.968Z,1034.18
2023-02-13T10:40:05.669Z,1034.18
2023-02-13T10:41:05.645Z,1034.11
2023-02-13T10:42:05.655Z,1034.16
2023-02-13T10:43:04.921Z,1034.15
2023-02-13T10:44:04.933Z,1034.16
2023-02-13T10:45:04.895Z,1034.17
2023-02-13T10:46:05.894Z,1034.16
2023-02-13T10:47:04.870Z,1034.14
2023-02-13T10:48:05.811Z,1034.12
2023-02-13T10:49:04.854Z,1034.13
2023-02-13T10:50:04.872Z,1034.09
2023-02-13T10:51:04.888Z,1034.09
2023-02-13T10:52:05.513Z,1034.03
2023-02-13T10:53:04.822Z,1034.05
2023-02-13T10:54:05.486Z,1034.05
2023-02-13T10:55:04.805Z,1034.03
2023-02-13T10:56:05.581Z,1034.01
2023-02-13T10:57:05.459Z,1034.08
2023-02-13T10:58:04.787Z,1034.00
2023-02-13T10:59:05.442Z,1034.01
2023-02-13T11:00:05.422Z,1034.00
2023-02-13T11:01:04.741Z,1034.00
2023-02-13T11:02:05.399Z,1034.03
2023-02-13T11:03:05.382Z,1034.03
2023-02-13T11:04:04.700Z,1034.08
2023-02-13T11:05:05.361Z,1034.05
2023-02-13T11:06:04.694Z,1034.05
2023-02-13T11:07:04.665Z,1034.02
2023-02-13T11:08:05.331Z,1033.95
2023-02-13T11:09:05.320Z,1033.96
2023-02-13T11:10:05.311Z,1033.94
2023-02-13T11:11:05.314Z,1033.93
2023-02-13T11:12:05.299Z,1033.91
2023-02-13T11:13:05.530Z,1033.91
2023-02-13T11:14:05.541Z,1033.92
2023-02-13T11:15:04.572Z,1033.94
2023-02-13T11:16:04.769Z,1033.95
2023-02-13T11:17:06.491Z,1033.92
2023-02-13T11:18:04.553Z,1033.84
2023-02-13T11:19:04.541Z,1033.93
2023-02-13T11:20:04.501Z,1033.94
2023-02-13T11:21:04.514Z,1033.87
2023-02-13T11:22:04.497Z,1033.91
2023-02-13T11:23:04.481Z,1033.89
2023-02-13T11:24:05.152Z,1033.87
2023-02-13T11:25:05.161Z,1033.82
2023-02-13T11:26:05.160Z,1033.82
2023-02-13T11:27:05.123Z,1033.81
2023-02-13T11:28:05.152Z,1033.83
2023-02-13T11:29:04.415Z,1033.80
2023-02-13T11:30:05.130Z,1033.80
2023-02-13T11:31:05.189Z,1033.80
2023-02-13T11:32:05.178Z,1033.79
2023-02-13T11:33:04.374Z,1033.76
2023-02-13T11:34:04.373Z,1033.75
2023-02-13T11:35:05.047Z,1033.72
2023-02-13T11:36:05.135Z,1033.78
2023-02-13T11:37:05.023Z,1033.74
2023-02-13T11:38:05.006Z,1033.75
2023-02-13T11:39:05.159Z,1033.73
2023-02-13T11:40:04.299Z,1033.72
2023-02-13T11:41:05.004Z,1033.71
2023-02-13T11:42:04.966Z,1033.71
2023-02-13T11:43:05.206Z,1033.69
2023-02-13T11:44:04.968Z,1033.69
2023-02-13T11:45:04.928Z,1033.64
2023-02-13T11:46:05.227Z,1033.63
2023-02-13T11:47:05.017Z,1033.69
2023-02-13T11:48:04.903Z,1033.69
2023-02-13T11:49:04.907Z,1033.66
2023-02-13T11:50:04.881Z,1033.64
2023-02-13T11:51:04.209Z,1033.63
2023-02-13T11:52:04.879Z,1033.59
2023-02-13T11:53:04.848Z,1033.60
2023-02-13T11:54:04.830Z,1033.58
2023-02-13T11:55:05.429Z,1033.58
2023-02-13T11:56:04.837Z,1033.61
2023-02-13T11:57:05.837Z,1033.57
2023-02-13T11:58:04.796Z,1033.58
2023-02-13T11:59:04.846Z,1033.50
2023-02-13T12:00:04.775Z,1033.54
2023-02-13T12:01:05.036Z,1033.49
2023-02-13T12:02:04.781Z,1033.53
2023-02-13T12:03:04.877Z,1033.51
2023-02-13T12:04:04.795Z,1033.47
2023-02-13T12:05:04.047Z,1033.46